Time;durP1;ratioP1;P1;durP2;ratioP2;P2;SDS_P1;SDS_P2;PMS_P1;PMS_P2;Temp;Humidity;BMP_temperature;BMP_pressure;BME280_temperature;BME280_humidity;BME280_pressure;Samples;Min_cycle;Max_cycle;Signal;HPM_P1;HPM_P2
2024/01/24 00:02:35;;;;;;;1.50;0.90;;;;;;;17.68;50.98;97745.09;10367774;28;20022;-39
2024/01/24 00:07:35;;;;;;;4.80;1.03;;;;;;;17.67;50.71;97761.13;10366947;28;20978;-37
2024/01/24 00:12:36;;;;;;;1.63;0.90;;;;;;;17.66;51.16;97747.59;10365932;28;20504;-39
2024/01/24 00:17:36;;;;;;;2.10;0.87;;;;;;;17.66;50.40;97737.47;10366803;28;20041;-40
2024/01/24 00:22:36;;;;;;;4.17;1.30;;;;;;;17.69;50.58;97721.50;10366155;28;20811;-37
2024/01/24 00:27:37;;;;;;;2.93;1.00;;;;;;;17.68;50.48;97735.81;10365924;28;20033;-36
2024/01/24 00:32:37;;;;;;;5.00;1.30;;;;;;;17.65;51.27;97714.66;10366163;28;20038;-38
2024/01/24 00:37:37;;;;;;;2.60;0.63;;;;;;;17.66;50.03;97708.78;10365416;28;20390;-37
2024/01/24 00:42:42;;;;;;;4.00;0.90;;;;;;;17.68;50.45;97686.88;10364592;28;20022;-37
2024/01/24 00:47:43;;;;;;;3.40;0.90;;;;;;;17.68;50.25;97691.94;10365977;28;20485;-38
2024/01/24 00:52:43;;;;;;;1.75;0.75;;;;;;;17.67;50.82;97688.53;10364779;28;20038;-36
2024/01/24 00:57:44;;;;;;;1.40;0.90;;;;;;;17.69;50.23;97673.38;10363450;28;20387;-35
2024/01/24 01:02:46;;;;;;;2.17;0.70;;;;;;;17.67;50.68;97662.38;10363111;28;20109;-37
2024/01/24 01:07:47;;;;;;;4.40;1.50;;;;;;;17.65;50.19;97654.72;10362939;28;20072;-36
2024/01/24 01:12:47;;;;;;;6.07;1.40;;;;;;;17.66;50.49;97661.50;10363151;28;20046;-36
2024/01/24 01:17:47;;;;;;;2.93;1.17;;;;;;;17.66;51.27;97641.25;10364790;28;20152;-39
2024/01/24 01:22:48;;;;;;;4.77;0.97;;;;;;;17.66;51.44;97648.00;10363323;28;20030;-39
2024/01/24 01:27:48;;;;;;;6.20;1.73;;;;;;;17.66;50.42;97645.47;10363716;28;20032;-40
2024/01/24 01:32:49;;;;;;;1.80;0.77;;;;;;;17.66;50.57;97626.03;10363781;28;20042;-34
2024/01/24 01:37:49;;;;;;;2.00;0.73;;;;;;;17.66;51.36;97630.28;10363598;28;20500;-37
2024/01/24 01:42:50;;;;;;;2.17;0.73;;;;;;;17.65;50.81;97631.09;10362804;28;20030;-36
2024/01/24 01:47:51;;;;;;;1.47;0.90;;;;;;;17.57;51.39;97594.66;10362688;28;20752;-37
2024/01/24 01:52:52;;;;;;;3.63;0.70;;;;;;;17.65;50.67;97618.44;10362381;28;20410;-36
2024/01/24 01:57:53;;;;;;;1.88;0.90;;;;;;;17.62;51.55;97628.50;10361426;28;20038;-41
2024/01/24 02:02:53;;;;;;;2.63;1.00;;;;;;;17.64;50.39;97631.91;10363037;28;20031;-39
2024/01/24 02:07:54;;;;;;;1.90;0.83;;;;;;;17.65;51.37;97628.56;10362314;28;20029;-37
2024/01/24 02:12:54;;;;;;;3.83;0.60;;;;;;;17.64;51.14;97621.78;10361325;28;20301;-39
2024/01/24 02:17:54;;;;;;;2.67;0.67;;;;;;;17.63;51.37;97617.53;10362332;28;20096;-38
2024/01/24 02:22:55;;;;;;;2.17;0.90;;;;;;;17.63;50.86;97620.06;10360261;28;20046;-39
2024/01/24 02:27:55;;;;;;;1.20;0.57;;;;;;;17.64;50.67;97609.97;10359527;28;20101;-37
2024/01/24 02:32:56;;;;;;;1.20;0.53;;;;;;;17.65;50.95;97593.13;10360263;28;20052;-38
2024/01/24 02:37:56;;;;;;;2.05;0.90;;;;;;;17.64;51.85;97592.25;10359463;28;20033;-37
2024/01/24 02:42:57;;;;;;;1.97;0.80;;;;;;;17.64;51.94;97584.66;10358977;28;20025;-39
2024/01/24 02:47:57;;;;;;;2.67;0.70;;;;;;;17.63;50.82;97589.69;10359661;28;20038;-40
2024/01/24 02:52:57;;;;;;;2.20;0.73;;;;;;;17.64;51.04;97581.25;10358947;28;20312;-40
2024/01/24 02:57:58;;;;;;;2.40;0.70;;;;;;;17.63;51.44;97579.56;10355131;28;20042;-41
2024/01/24 03:02:58;;;;;;;2.53;1.27;;;;;;;17.63;51.86;97575.34;10358422;28;20026;-38
2024/01/24 03:07:59;;;;;;;2.23;0.60;;;;;;;17.62;51.37;97595.56;10358149;28;20442;-37
2024/01/24 03:12:59;;;;;;;2.30;0.60;;;;;;;17.60;51.00;97589.63;10357831;28;20504;-38
2024/01/24 03:18:00;;;;;;;1.67;1.13;;;;;;;17.59;51.85;97609.03;10359071;28;20038;-36
2024/01/24 03:23:01;;;;;;;3.22;0.95;;;;;;;17.59;51.37;97593.00;10320801;28;1104871;-40
2024/01/24 03:28:01;;;;;;;2.35;0.70;;;;;;;17.61;50.69;97596.41;10359155;28;20060;-38
2024/01/24 03:33:04;;;;;;;1.33;0.70;;;;;;;17.60;51.66;97594.72;10359958;28;20096;-38
2024/01/24 03:38:04;;;;;;;2.33;0.63;;;;;;;17.60;52.47;97615.84;10358671;28;20037;-39
2024/01/24 03:43:05;;;;;;;2.93;0.83;;;;;;;17.61;50.79;97606.53;10359658;28;20030;-37
2024/01/24 03:48:06;;;;;;;1.73;0.55;;;;;;;17.58;51.54;97597.19;10359715;28;20482;-37
2024/01/24 03:53:06;;;;;;;0.98;0.77;;;;;;;17.58;50.10;97581.19;10360051;28;20095;-40
2024/01/24 03:58:07;;;;;;;1.10;0.60;;;;;;;17.58;51.10;97586.25;10358968;28;20056;-35
2024/01/24 04:03:07;;;;;;;2.57;0.60;;;;;;;17.57;50.63;97576.94;10359725;28;20044;-39
2024/01/24 04:08:07;;;;;;;3.60;0.68;;;;;;;17.56;49.40;97577.78;10358445;28;20034;-38
2024/01/24 04:13:08;;;;;;;1.90;0.50;;;;;;;17.54;50.68;97576.88;10364076;28;20037;-35
2024/01/24 04:18:09;;;;;;;2.87;0.70;;;;;;;17.58;52.06;97564.28;10367092;28;20736;-36
2024/01/24 04:23:10;;;;;;;2.25;0.50;;;;;;;17.58;51.27;97555.84;10365554;28;20041;-38
2024/01/24 04:28:10;;;;;;;1.53;1.43;;;;;;;17.58;52.22;97563.44;10365012;28;20042;-38
2024/01/24 04:33:11;;;;;;;3.23;1.23;;;;;;;17.57;50.49;97541.50;10366201;28;20298;-36
2024/01/24 04:38:11;;;;;;;1.40;0.60;;;;;;;17.58;51.81;97553.31;10365131;28;20112;-37
2024/01/24 04:43:11;;;;;;;1.77;0.70;;;;;;;17.61;51.00;97583.75;10364655;28;20324;-37
2024/01/24 04:48:12;;;;;;;2.20;0.57;;;;;;;17.70;50.55;97573.78;10364306;28;20049;-36
2024/01/24 04:53:12;;;;;;;0.50;0.50;;;;;;;17.74;50.24;97562.88;10365149;28;20935;-39
2024/01/24 04:58:12;;;;;;;0.93;0.40;;;;;;;17.79;49.92;97576.44;10362792;28;20304;-39
2024/01/24 05:03:14;;;;;;;2.20;0.90;;;;;;;17.81;49.75;97593.38;10364746;28;20033;-39
2024/01/24 05:08:14;;;;;;;0.75;0.55;;;;;;;17.83;49.79;97632.25;10364281;28;20788;-38
2024/01/24 05:13:14;;;;;;;2.43;0.60;;;;;;;17.85;49.86;97663.56;10363020;28;20033;-38
2024/01/24 05:18:15;;;;;;;3.40;0.60;;;;;;;17.86;49.58;97704.91;10364089;28;20092;-38
2024/01/24 05:23:15;;;;;;;1.17;0.57;;;;;;;17.85;49.66;97716.75;10351351;28;20030;-40
2024/01/24 05:28:15;;;;;;;0.80;0.60;;;;;;;17.86;49.03;97715.06;10358138;28;20153;-35
2024/01/24 05:33:16;;;;;;;1.57;1.27;;;;;;;17.87;49.03;97711.69;10360061;28;20040;-39
2024/01/24 05:38:16;;;;;;;2.50;0.50;;;;;;;17.86;49.03;97694.78;10358482;28;20048;-39
2024/01/24 05:43:17;;;;;;;3.40;0.83;;;;;;;17.84;49.23;97701.50;10362111;28;20702;-35
2024/01/24 05:48:18;;;;;;;3.63;0.40;;;;;;;17.84;48.92;97721.78;10360708;28;20129;-39
2024/01/24 05:53:18;;;;;;;1.63;0.68;;;;;;;17.82;50.19;97728.50;10357457;28;20123;-40
2024/01/24 05:58:19;;;;;;;1.02;0.50;;;;;;;17.83;48.13;97728.50;10361778;28;20037;-37
2024/01/24 06:03:20;;;;;;;2.88;0.70;;;;;;;17.82;47.83;97711.59;10355871;28;20037;-36
2024/01/24 06:08:20;;;;;;;1.25;0.50;;;;;;;17.85;48.19;97743.75;10362210;28;20061;-37
2024/01/24 06:13:24;;;;;;;0.60;0.47;;;;;;;17.82;47.48;97734.41;10361001;28;20046;-35
2024/01/24 06:18:24;;;;;;;1.95;0.60;;;;;;;17.84;47.26;97721.78;10362492;28;20037;-37
2024/01/24 06:23:25;;;;;;;2.50;0.90;;;;;;;17.84;47.91;97724.31;10360879;28;20609;-35
2024/01/24 06:28:25;;;;;;;3.57;0.90;;;;;;;17.83;47.20;97725.13;10361119;28;20033;-34
2024/01/24 06:33:25;;;;;;;1.30;0.63;;;;;;;17.77;47.46;97735.16;10360348;28;20060;-39
2024/01/24 06:38:26;;;;;;;3.93;0.40;;;;;;;17.76;47.14;97708.13;10361524;28;20037;-40
2024/01/24 06:43:26;;;;;;;0.97;0.40;;;;;;;17.77;46.46;97719.94;10360455;28;20285;-38
2024/01/24 06:48:27;;;;;;;2.73;0.63;;;;;;;17.74;46.44;97699.66;10360442;28;20046;-37
2024/01/24 06:53:27;;;;;;;1.50;0.60;;;;;;;17.71;46.12;97704.63;10361161;28;20077;-37
2024/01/24 06:58:28;;;;;;;2.23;0.93;;;;;;;17.72;46.45;97727.47;10360265;28;20038;-38
2024/01/24 07:03:29;;;;;;;0.98;0.40;;;;;;;17.72;46.01;97746.84;10359574;28;20037;-35
2024/01/24 07:08:29;;;;;;;0.88;0.30;;;;;;;17.70;45.64;97738.38;10361282;28;20490;-36
2024/01/24 07:13:30;;;;;;;1.07;0.50;;;;;;;17.68;45.94;97725.69;10359152;28;20391;-35
2024/01/24 07:18:34;;;;;;;1.33;0.73;;;;;;;17.65;45.57;97740.84;10360946;28;20112;-39
2024/01/24 07:23:34;;;;;;;0.47;0.32;;;;;;;17.65;45.17;97704.53;10360460;28;20041;-37
2024/01/24 07:28:35;;;;;;;1.07;0.30;;;;;;;17.64;45.44;97672.41;10359709;28;20049;-39
2024/01/24 07:33:35;;;;;;;3.60;0.50;;;;;;;17.64;46.00;97687.63;10360340;28;20052;-39
2024/01/24 07:38:37;;;;;;;1.17;0.40;;;;;;;17.64;46.00;97690.16;10359116;28;20033;-37
2024/01/24 07:43:37;;;;;;;0.57;0.30;;;;;;;17.64;46.01;97734.06;10359553;28;20026;-39
2024/01/24 07:48:37;;;;;;;0.50;0.50;;;;;;;17.65;46.70;97750.13;10366064;28;20041;-40
2024/01/24 07:53:38;;;;;;;0.97;0.40;;;;;;;17.64;46.26;97750.94;10366824;28;20037;-39
2024/01/24 07:58:42;;;;;;;0.90;0.30;;;;;;;17.62;46.38;97750.91;10366793;28;20084;-38
2024/01/24 08:03:42;;;;;;;0.77;0.30;;;;;;;17.61;45.61;97761.00;10366083;28;20030;-39
2024/01/24 08:08:43;;;;;;;0.55;0.30;;;;;;;17.58;45.51;97744.06;10367192;28;20037;-38
2024/01/24 08:13:44;;;;;;;1.85;0.45;;;;;;;17.58;45.57;97745.75;10365718;28;20038;-38
2024/01/24 08:18:45;;;;;;;0.88;0.30;;;;;;;17.57;45.42;97736.47;10366750;28;20498;-35
2024/01/24 08:23:45;;;;;;;1.02;0.30;;;;;;;17.58;44.90;97755.88;10365372;28;20037;-36
2024/01/24 08:28:45;;;;;;;1.13;0.40;;;;;;;17.57;45.82;97766.84;10365061;28;20037;-39
2024/01/24 08:33:46;;;;;;;0.90;0.33;;;;;;;17.57;46.13;97787.09;10366050;28;20473;-40
2024/01/24 08:38:46;;;;;;;1.53;0.40;;;;;;;17.57;46.39;97774.44;10364866;28;20030;-38
2024/01/24 08:43:46;;;;;;;0.77;0.30;;;;;;;17.56;45.98;97770.22;10364844;28;20291;-35
2024/01/24 08:48:47;;;;;;;0.47;0.20;;;;;;;17.53;45.68;97748.19;10364811;28;20029;-37
2024/01/24 08:53:47;;;;;;;0.73;0.30;;;;;;;17.52;45.73;97732.97;10365002;28;20034;-36
2024/01/24 08:58:48;;;;;;;1.13;0.40;;;;;;;17.53;45.58;97740.59;10364314;28;20048;-35
2024/01/24 09:03:49;;;;;;;0.40;0.20;;;;;;;17.51;46.55;97726.19;10359826;28;20030;-35
2024/01/24 09:08:52;;;;;;;0.47;0.40;;;;;;;17.55;46.20;97743.16;10364298;28;20038;-41
2024/01/24 09:13:53;;;;;;;0.30;0.20;;;;;;;17.54;46.91;97766.75;10363350;28;20058;-39
2024/01/24 09:18:53;;;;;;;0.88;0.30;;;;;;;17.52;46.66;97748.16;10364194;28;20480;-40
2024/01/24 09:23:54;;;;;;;0.30;0.30;;;;;;;17.51;46.90;97749.81;10363062;28;20056;-35
2024/01/24 09:28:54;;;;;;;0.97;0.60;;;;;;;17.52;46.34;97760.81;10362976;28;20359;-37
2024/01/24 09:33:54;;;;;;;0.40;0.30;;;;;;;17.51;45.71;97766.72;10363034;28;20041;-38
2024/01/24 09:38:55;;;;;;;0.67;0.40;;;;;;;17.48;46.42;97764.13;10363736;28;20536;-40
2024/01/24 09:44:02;;;;;;;0.43;0.30;;;;;;;17.50;46.51;97778.50;10362225;28;20303;-39
2024/01/24 09:49:04;;;;;;;0.57;0.30;;;;;;;17.52;47.10;97776.00;10362926;28;20048;-39
2024/01/24 09:54:06;;;;;;;0.75;0.47;;;;;;;17.49;47.51;97783.56;10362658;28;20413;-37
2024/01/24 09:59:08;;;;;;;0.40;0.30;;;;;;;17.49;46.58;97786.09;10362211;28;20038;-37
2024/01/24 10:04:13;;;;;;;1.38;0.30;;;;;;;17.48;46.56;97781.84;10357297;28;20486;-38
2024/01/24 10:09:14;;;;;;;0.20;0.20;;;;;;;17.47;46.28;97810.50;10361092;28;20061;-38
2024/01/24 10:14:14;;;;;;;0.40;0.20;;;;;;;17.47;46.14;97788.56;10361171;28;20116;-38
2024/01/24 10:19:14;;;;;;;0.40;0.20;;;;;;;17.46;46.47;97775.88;10361773;28;20081;-38
2024/01/24 10:24:15;;;;;;;0.60;0.20;;;;;;;17.46;45.93;97799.53;10361001;28;20025;-41
2024/01/24 10:29:15;;;;;;;0.40;0.32;;;;;;;17.45;45.97;97795.28;10361107;28;20120;-38
2024/01/24 10:34:16;;;;;;;0.30;0.20;;;;;;;17.45;45.17;97796.97;10360882;28;20046;-37
2024/01/24 10:39:17;;;;;;;0.50;0.20;;;;;;;17.45;46.70;97791.91;10361348;28;20033;-35
2024/01/24 10:44:19;;;;;;;1.33;0.20;;;;;;;17.44;46.88;97780.06;10359717;28;20021;-36
2024/01/24 10:49:23;;;;;;;0.30;0.20;;;;;;;17.45;46.35;97767.44;10360722;28;20036;-38
2024/01/24 10:54:23;;;;;;;0.40;0.15;;;;;;;17.44;46.16;97765.75;10360478;28;20038;-39
2024/01/24 10:59:27;;;;;;;0.43;0.40;;;;;;;17.43;44.94;97769.09;10360362;28;20033;-38
2024/01/24 11:04:28;;;;;;;0.30;0.20;;;;;;;17.42;45.50;97748.81;10357427;28;20418;-39
2024/01/24 11:09:53;;;;;;;0.35;0.22;;;;;;;17.43;46.13;97738.72;10360324;28;20087;-39
2024/01/24 11:15:05;;;;;;;1.20;0.45;;;;;;;17.42;46.92;97726.84;10359788;28;20034;-36
2024/01/24 11:20:06;;;;;;;0.25;0.20;;;;;;;17.49;47.30;97732.91;10360961;28;20674;-39
2024/01/24 11:25:10;;;;;;;0.43;0.25;;;;;;;17.56;47.79;97722.94;10365244;28;20026;-36
2024/01/24 11:30:18;;;;;;;0.43;0.30;;;;;;;17.61;47.83;97733.16;10368428;28;20045;-37
2024/01/24 11:35:30;;;;;;;0.73;0.25;;;;;;;17.65;48.10;97723.09;10367649;28;20034;-38
2024/01/24 11:40:36;;;;;;;0.70;0.30;;;;;;;17.64;48.55;97743.31;10366902;28;20065;-40
2024/01/24 11:45:36;;;;;;;1.65;0.50;;;;;;;17.65;48.64;97724.81;10368314;28;20088;-39
2024/01/24 11:50:36;;;;;;;3.83;1.73;;;;;;;17.58;48.51;97738.16;10366463;28;20034;-36
2024/01/24 11:55:37;;;;;;;9.23;3.50;;;;;;;17.68;47.79;97745.09;10364980;28;20030;-37
2024/01/24 12:00:38;;;;;;;10.25;4.50;;;;;;;17.72;47.59;97751.94;10366234;28;20273;-39
2024/01/24 12:05:39;;;;;;;15.48;5.97;;;;;;;17.69;47.44;97717.28;10366232;28;20452;-38
2024/01/24 12:10:40;;;;;;;10.23;4.67;;;;;;;17.75;47.31;97729.22;10366095;28;20092;-35
2024/01/24 12:15:44;;;;;;;11.70;5.90;;;;;;;17.77;47.63;97709.81;10366632;28;20775;-38
2024/01/24 12:20:53;;;;;;;7.75;4.00;;;;;;;17.75;47.43;97732.59;10366019;28;20768;-36
2024/01/24 12:25:54;;;;;;;18.98;4.93;;;;;;;17.73;46.95;97735.94;10365894;28;20030;-37
2024/01/24 12:30:54;;;;;;;8.70;3.60;;;;;;;17.71;46.87;97728.28;10366118;28;20049;-40
2024/01/24 12:35:55;;;;;;;9.03;3.80;;;;;;;17.72;46.97;97719.00;10365440;28;20046;-37
2024/01/24 12:40:55;;;;;;;8.47;4.43;;;;;;;17.71;46.50;97709.69;10365010;28;20038;-40
2024/01/24 12:45:56;;;;;;;9.30;4.00;;;;;;;17.70;46.29;97701.25;10365340;28;20034;-38
2024/01/24 12:50:56;;;;;;;9.80;3.67;;;;;;;17.68;46.08;97719.78;10364939;28;20034;-41
2024/01/24 12:55:56;;;;;;;7.77;3.30;;;;;;;17.67;45.80;97702.88;10364295;28;20320;-37
2024/01/24 13:00:57;;;;;;;8.80;4.47;;;;;;;17.60;47.67;97698.53;10363495;28;20037;-37
2024/01/24 13:05:57;;;;;;;9.00;5.03;;;;;;;17.58;48.79;97717.91;10364068;28;20625;-39
2024/01/24 13:10:57;;;;;;;8.55;5.28;;;;;;;17.55;48.76;97727.97;10363859;28;20029;-37
2024/01/24 13:15:58;;;;;;;9.63;5.07;;;;;;;17.52;48.72;97727.91;10364082;28;20084;-37
2024/01/24 13:20:59;;;;;;;14.30;5.90;;;;;;;17.55;47.26;97717.81;10363695;28;20038;-40
2024/01/24 13:25:59;;;;;;;7.60;3.93;;;;;;;17.57;46.54;97708.59;10362621;28;20080;-38
2024/01/24 13:31:00;;;;;;;10.45;4.75;;;;;;;17.59;46.99;97702.72;10363827;28;20038;-39
2024/01/24 13:36:00;;;;;;;7.47;4.30;;;;;;;17.66;46.71;97703.72;10362858;28;20044;-38
2024/01/24 13:41:01;;;;;;;8.83;5.60;;;;;;;17.67;47.00;97713.00;10362834;28;20413;-38
2024/01/24 13:46:01;;;;;;;9.23;5.27;;;;;;;17.71;46.50;97705.50;10362403;28;20934;-38
2024/01/24 13:51:01;;;;;;;8.63;4.73;;;;;;;17.72;46.43;97708.88;10362697;28;20512;-37
2024/01/24 13:56:02;;;;;;;13.88;6.45;;;;;;;17.71;47.34;97704.63;10361684;28;20300;-37
2024/01/24 14:01:02;;;;;;;8.50;5.15;;;;;;;17.74;47.25;97707.25;10362944;28;20064;-38
2024/01/24 14:06:03;;;;;;;20.63;7.00;;;;;;;17.80;48.42;97725.06;10361444;28;20461;-39
2024/01/24 14:11:06;;;;;;;17.65;6.70;;;;;;;17.85;48.74;97728.56;10361552;28;20034;-36
2024/01/24 14:16:07;;;;;;;13.05;7.28;;;;;;;17.84;49.54;97709.94;10360846;28;20034;-38
2024/01/24 14:21:07;;;;;;;12.10;7.07;;;;;;;17.91;49.96;97713.47;10361203;28;20038;-35
2024/01/24 14:26:08;;;;;;;16.70;7.53;;;;;;;17.92;50.27;97725.31;10360499;28;20091;-36
2024/01/24 14:31:08;;;;;;;15.65;8.02;;;;;;;17.94;50.25;97724.50;10359474;28;20057;-35
2024/01/24 14:36:09;;;;;;;15.07;6.68;;;;;;;17.92;49.25;97740.50;10359938;28;20034;-39
2024/01/24 14:41:10;;;;;;;12.85;5.57;;;;;;;17.88;48.48;97733.66;10360662;28;20034;-37
2024/01/24 14:46:10;;;;;;;4.15;3.17;;;;;;;17.80;44.98;97736.06;10361327;28;20038;-35
2024/01/24 14:51:11;;;;;;;8.07;3.43;;;;;;;17.88;44.10;97743.78;10360136;28;20037;-35
2024/01/24 14:56:11;;;;;;;6.20;2.67;;;;;;;17.84;44.03;97747.94;10359990;28;20129;-38
2024/01/24 15:01:12;;;;;;;4.57;2.83;;;;;;;17.87;43.89;97762.34;10361285;28;20309;-39
2024/01/24 15:06:13;;;;;;;4.80;2.85;;;;;;;17.85;43.66;97753.88;10360338;28;20037;-38
2024/01/24 15:11:13;;;;;;;4.05;2.55;;;;;;;17.86;43.87;97755.59;10359855;28;20034;-38
2024/01/24 15:16:14;;;;;;;4.43;2.30;;;;;;;17.86;43.34;97778.38;10360070;28;20506;-38
2024/01/24 15:21:14;;;;;;;4.63;2.33;;;;;;;17.85;42.57;97779.22;10359217;28;20372;-39
2024/01/24 15:26:15;;;;;;;5.80;3.13;;;;;;;17.85;43.66;97799.47;10360183;28;20037;-38
2024/01/24 15:31:17;;;;;;;6.40;2.57;;;;;;;17.82;44.00;97800.28;10360329;28;20053;-37
2024/01/24 15:36:18;;;;;;;4.30;2.58;;;;;;;17.85;44.72;97810.47;10359003;28;20034;-39
2024/01/24 15:41:18;;;;;;;4.20;2.37;;;;;;;17.83;43.56;97813.81;10359952;28;20061;-39
2024/01/24 15:46:19;;;;;;;4.15;2.50;;;;;;;17.84;43.13;97828.19;10360186;28;20045;-37
2024/01/24 15:51:19;;;;;;;4.57;2.40;;;;;;;17.85;43.15;97852.69;10359710;28;20041;-37
2024/01/24 15:56:19;;;;;;;3.28;2.35;;;;;;;17.84;45.25;97854.34;10359323;28;21041;-39
2024/01/24 16:01:22;;;;;;;5.27;2.63;;;;;;;17.84;45.95;97858.56;10356694;28;20623;-35
2024/01/24 16:06:22;;;;;;;3.85;2.17;;;;;;;17.82;44.39;97855.16;10359739;28;20049;-35
2024/01/24 16:11:23;;;;;;;4.05;2.00;;;;;;;17.81;43.84;97853.44;10366474;28;20740;-38
2024/01/24 16:16:23;;;;;;;4.33;2.33;;;;;;;17.83;43.82;97867.00;10367087;28;20494;-40
2024/01/24 16:21:24;;;;;;;4.87;2.47;;;;;;;17.80;45.95;97856.78;10366939;28;20176;-36
2024/01/24 16:26:24;;;;;;;5.00;2.47;;;;;;;17.83;46.42;97856.88;10366361;28;20380;-36
2024/01/24 16:31:25;;;;;;;4.80;2.73;;;;;;;17.81;44.53;97858.50;10366788;28;20038;-38
2024/01/24 16:36:26;;;;;;;3.63;2.03;;;;;;;17.79;45.93;97876.22;10365591;28;20053;-35
2024/01/24 16:41:26;;;;;;;3.20;2.10;;;;;;;17.80;44.19;97883.00;10365875;28;20041;-36
2024/01/24 16:46:27;;;;;;;3.60;1.87;;;;;;;17.80;42.75;97877.06;10366028;28;20042;-37
2024/01/24 16:51:27;;;;;;;3.37;1.60;;;;;;;17.77;41.52;97871.94;10365510;28;20501;-38
2024/01/24 16:56:30;;;;;;;2.07;1.57;;;;;;;17.76;41.16;97875.28;10362062;28;20038;-42
2024/01/24 17:01:30;;;;;;;2.90;2.25;;;;;;;17.74;41.12;97885.38;10365056;28;20044;-37
2024/01/24 17:06:30;;;;;;;2.30;1.60;;;;;;;17.75;41.64;97893.84;10364390;28;20041;-36
2024/01/24 17:11:31;;;;;;;2.40;1.87;;;;;;;17.79;42.17;97910.81;10363996;28;20684;-38
2024/01/24 17:16:31;;;;;;;4.33;2.60;;;;;;;17.79;41.99;97916.75;10364727;28;20054;-39
2024/01/24 17:21:31;;;;;;;3.37;2.03;;;;;;;17.77;41.19;97915.00;10362305;28;20501;-37
2024/01/24 17:26:32;;;;;;;2.90;2.17;;;;;;;17.77;41.89;97927.66;10357355;28;20296;-39
2024/01/24 17:31:32;;;;;;;2.00;1.50;;;;;;;17.73;40.64;97916.59;10353127;28;20518;-40
2024/01/24 17:36:32;;;;;;;2.43;1.60;;;;;;;17.70;40.61;97921.63;10360906;28;20528;-36
2024/01/24 17:41:33;;;;;;;3.43;1.50;;;;;;;17.73;41.38;97920.84;10359075;28;20293;-35
2024/01/24 17:46:38;;;;;;;1.90;1.42;;;;;;;17.75;41.28;97925.09;10357820;28;20026;-37
2024/01/24 17:51:38;;;;;;;1.65;1.17;;;;;;;17.73;41.10;97905.63;10361929;28;20454;-39
2024/01/24 17:56:38;;;;;;;1.80;1.33;;;;;;;17.76;41.68;97915.81;10353953;28;20034;-40
2024/01/24 18:01:39;;;;;;;4.17;1.87;;;;;;;17.77;41.43;97927.66;10356140;28;20033;-39
2024/01/24 18:06:39;;;;;;;2.88;1.67;;;;;;;17.77;41.01;97923.47;10354814;28;20030;-36
2024/01/24 18:11:40;;;;;;;16.17;2.87;;;;;;;17.86;47.82;97932.91;10352566;28;20038;-39
2024/01/24 18:16:40;;;;;;;8.70;2.83;;;;;;;17.86;45.31;97933.78;10346287;28;20030;-36
2024/01/24 18:21:41;;;;;;;3.70;1.97;;;;;;;17.86;42.73;97938.88;10352694;28;20289;-35
2024/01/24 18:26:41;;;;;;;5.10;2.10;;;;;;;17.85;43.06;97937.16;10349393;28;20295;-37
2024/01/24 18:31:41;;;;;;;4.00;2.33;;;;;;;17.78;42.50;97934.44;10361129;28;20963;-39
2024/01/24 18:36:42;;;;;;;4.93;1.90;;;;;;;17.82;41.88;97938.75;10360286;28;20137;-40
2024/01/24 18:41:42;;;;;;;7.40;3.30;;;;;;;17.83;48.27;97943.00;10360384;28;20033;-39
2024/01/24 18:46:47;;;;;;;9.63;3.60;;;;;;;17.86;45.06;97954.06;10357339;28;20277;-39
2024/01/24 18:51:47;;;;;;;4.70;2.15;;;;;;;17.89;44.43;97948.19;10358618;28;20292;-39
2024/01/24 18:56:47;;;;;;;4.87;2.30;;;;;;;17.90;44.23;97939.78;10356470;28;20042;-38
2024/01/24 19:01:48;;;;;;;4.87;2.10;;;;;;;17.91;44.29;97949.09;10355097;28;20060;-39
2024/01/24 19:06:48;;;;;;;6.33;2.40;;;;;;;17.90;44.07;97952.44;10350976;28;20068;-37
2024/01/24 19:11:49;;;;;;;4.80;1.85;;;;;;;17.90;43.50;97952.44;10352313;28;20048;-39
2024/01/24 19:16:49;;;;;;;6.23;2.57;;;;;;;17.90;43.70;97952.44;10350702;28;20045;-36
2024/01/24 19:21:51;;;;;;;3.75;2.10;;;;;;;17.88;43.24;97942.28;10351310;28;20021;-37
2024/01/24 19:26:52;;;;;;;5.70;2.17;;;;;;;17.88;43.07;97944.81;10352778;28;20530;-39
2024/01/24 19:31:53;;;;;;;4.60;1.95;;;;;;;17.85;43.08;97936.28;10357222;28;20038;-40
2024/01/24 19:36:53;;;;;;;2.05;1.40;;;;;;;17.87;42.83;97950.69;10358454;28;20049;-41
2024/01/24 19:41:54;;;;;;;4.10;2.40;;;;;;;17.88;44.35;97957.47;10358992;28;20030;-39
2024/01/24 19:46:55;;;;;;;4.72;2.30;;;;;;;17.93;45.38;97958.41;10363997;28;20046;-38
2024/01/24 19:51:56;;;;;;;4.35;2.28;;;;;;;17.93;48.31;97960.94;10361702;28;20045;-40
2024/01/24 19:56:56;;;;;;;4.50;2.40;;;;;;;17.93;50.15;97952.50;10356772;28;20088;-39
2024/01/24 20:01:59;;;;;;;5.70;2.60;;;;;;;17.94;49.79;97946.63;10357499;28;20403;-40
2024/01/24 20:07:00;;;;;;;3.38;2.28;;;;;;;17.92;49.87;97951.63;10359917;28;20065;-39
2024/01/24 20:12:00;;;;;;;3.60;2.33;;;;;;;17.94;49.64;97946.63;10358958;28;20274;-38
2024/01/24 20:17:01;;;;;;;3.37;2.33;;;;;;;17.94;48.59;97949.16;10360661;28;20065;-37
2024/01/24 20:22:01;;;;;;;3.47;2.67;;;;;;;17.96;48.06;97950.03;10354875;28;20037;-38
2024/01/24 20:27:02;;;;;;;6.23;1.70;;;;;;;17.96;48.52;97945.84;10360156;28;20034;-37
2024/01/24 20:32:03;;;;;;;6.97;2.55;;;;;;;17.96;50.26;97943.28;10362457;28;20300;-36
2024/01/24 20:37:05;;;;;;;4.82;2.42;;;;;;;17.97;48.59;97946.66;10362165;28;20124;-40
2024/01/24 20:42:08;;;;;;;5.00;3.25;;;;;;;17.96;49.21;97950.03;10360524;28;20398;-36
2024/01/24 20:47:09;;;;;;;5.55;2.33;;;;;;;17.98;48.84;97958.53;10362197;28;20398;-38
2024/01/24 20:52:10;;;;;;;5.65;2.42;;;;;;;17.99;49.06;97952.66;10359382;28;20504;-37
2024/01/24 20:57:10;;;;;;;3.23;1.97;;;;;;;17.97;49.42;97962.75;10355267;28;20081;-37
2024/01/24 21:02:10;;;;;;;3.93;1.90;;;;;;;17.99;50.47;97970.38;10359211;28;20764;-37
2024/01/24 21:07:10;;;;;;;4.37;2.33;;;;;;;17.96;50.52;97981.31;10360817;28;20607;-36
2024/01/24 21:12:11;;;;;;;5.50;3.00;;;;;;;17.95;50.94;97973.66;10360591;28;20057;-36
2024/01/24 21:17:12;;;;;;;2.03;1.77;;;;;;;17.94;49.67;97966.88;10361290;28;20037;-39
2024/01/24 21:22:12;;;;;;;4.00;2.00;;;;;;;17.95;50.45;97973.66;10357918;28;20292;-39
2024/01/24 21:27:12;;;;;;;4.07;2.13;;;;;;;17.95;50.10;97969.47;10360158;28;20068;-39
2024/01/24 21:32:13;;;;;;;2.93;1.90;;;;;;;17.94;49.18;97964.34;10360348;28;20038;-38
2024/01/24 21:37:13;;;;;;;4.27;2.47;;;;;;;17.95;51.26;97961.00;10359324;28;20045;-38
2024/01/24 21:42:14;;;;;;;5.43;2.90;;;;;;;17.90;50.92;97960.88;10359360;28;20045;-36
2024/01/24 21:47:18;;;;;;;2.85;1.70;;;;;;;17.93;48.78;97960.94;10360279;28;20061;-39
2024/01/24 21:52:19;;;;;;;2.25;1.65;;;;;;;17.92;48.31;97963.47;10358529;28;20042;-38
2024/01/24 21:57:19;;;;;;;4.10;2.47;;;;;;;17.92;48.36;97959.25;10358937;28;20033;-34
2024/01/24 22:02:22;;;;;;;4.25;1.88;;;;;;;17.89;47.92;97955.78;10359291;28;20498;-39
2024/01/24 22:07:22;;;;;;;3.95;2.17;;;;;;;17.90;48.09;97955.00;10357239;28;20034;-40
2024/01/24 22:12:25;;;;;;;2.57;1.90;;;;;;;17.90;47.59;97944.84;10357376;28;20041;-41
2024/01/24 22:17:25;;;;;;;3.13;1.88;;;;;;;17.82;50.01;97939.59;10357123;28;20033;-36
2024/01/24 22:22:25;;;;;;;3.23;1.60;;;;;;;17.62;51.85;97947.56;10359658;28;20553;-35
2024/01/24 22:27:26;;;;;;;4.80;1.50;;;;;;;17.56;52.88;97945.75;10357878;28;20033;-36
2024/01/24 22:32:26;;;;;;;2.80;1.80;;;;;;;17.54;53.10;97933.88;10361420;28;20040;-39
2024/01/24 22:37:26;;;;;;;2.60;2.00;;;;;;;17.52;53.63;97938.06;10361231;28;20064;-38
2024/01/24 22:42:29;;;;;;;2.10;1.70;;;;;;;17.51;53.54;97931.28;10360584;28;20729;-35
2024/01/24 22:47:29;;;;;;;5.80;2.28;;;;;;;17.49;53.91;97930.41;10359294;28;20772;-35
2024/01/24 22:52:32;;;;;;;3.47;1.97;;;;;;;17.51;53.90;97929.59;10360713;28;20026;-38
2024/01/24 22:57:32;;;;;;;5.55;2.13;;;;;;;17.51;54.02;97931.28;10360589;28;20065;-36
2024/01/24 23:02:33;;;;;;;3.95;1.63;;;;;;;17.49;53.79;97926.19;10361412;28;20132;-41
2024/01/24 23:07:33;;;;;;;5.80;2.13;;;;;;;17.50;53.90;97934.66;10360395;28;20052;-38
2024/01/24 23:12:34;;;;;;;3.47;2.10;;;;;;;17.44;53.97;97926.91;10359375;28;20021;-39
2024/01/24 23:17:37;;;;;;;3.78;1.75;;;;;;;17.45;54.11;97937.06;10366573;28;20037;-37